createdAt,value
2018-09-27T00:02:24.099Z,2.50
2018-09-27T00:04:52.388Z,3.00
2018-09-27T00:07:20.763Z,4.10
2018-09-27T00:09:49.077Z,4.70
2018-09-27T00:12:17.426Z,1.93
2018-09-27T00:14:45.729Z,2.70
2018-09-27T00:17:14.087Z,3.83
2018-09-27T00:19:42.439Z,3.40
2018-09-27T00:22:10.746Z,3.07
2018-09-27T00:24:39.086Z,2.00
2018-09-27T00:27:07.399Z,4.03
2018-09-27T00:29:35.707Z,4.57
2018-09-27T00:32:04.099Z,3.53
2018-09-27T00:34:32.520Z,3.27
2018-09-27T00:37:00.879Z,2.60
2018-09-27T00:39:29.254Z,3.30
2018-09-27T00:41:57.575Z,3.90
2018-09-27T00:44:25.901Z,2.10
2018-09-27T00:46:54.232Z,2.73
2018-09-27T00:49:22.733Z,2.80
2018-09-27T00:51:51.051Z,3.03
2018-09-27T00:54:19.370Z,2.97
2018-09-27T00:56:47.738Z,1.80
2018-09-27T00:59:16.035Z,2.30
2018-09-27T01:01:44.579Z,2.13
2018-09-27T01:04:12.913Z,4.20
2018-09-27T01:06:41.249Z,2.17
2018-09-27T01:09:10.499Z,2.33
2018-09-27T01:11:39.051Z,3.40
2018-09-27T01:14:07.405Z,2.23
2018-09-27T01:16:35.731Z,3.70
2018-09-27T01:19:04.071Z,2.30
2018-09-27T01:21:32.409Z,2.45
2018-09-27T01:24:00.730Z,4.33
2018-09-27T01:26:29.090Z,3.10
2018-09-27T01:28:57.410Z,2.90
2018-09-27T01:31:25.761Z,3.50
2018-09-27T01:33:54.179Z,2.87
2018-09-27T01:36:22.503Z,4.20
2018-09-27T01:38:50.805Z,2.77
2018-09-27T01:41:19.187Z,2.30
2018-09-27T01:43:47.479Z,2.53
2018-09-27T01:46:15.895Z,3.00
2018-09-27T01:48:44.185Z,2.83
2018-09-27T01:51:12.493Z,2.37
2018-09-27T01:53:40.822Z,3.83
2018-09-27T01:56:09.130Z,2.07
2018-09-27T01:58:37.547Z,2.37
2018-09-27T02:01:06.106Z,2.83
2018-09-27T02:03:34.390Z,2.57
2018-09-27T02:06:02.814Z,2.27
2018-09-27T02:08:31.123Z,2.83
2018-09-27T02:10:59.434Z,2.50
2018-09-27T02:13:27.751Z,2.13
2018-09-27T02:15:56.047Z,3.67
2018-09-27T02:18:24.870Z,4.03
2018-09-27T02:20:53.127Z,3.00
2018-09-27T02:23:21.507Z,2.03
2018-09-27T02:25:49.858Z,3.40
2018-09-27T02:28:18.190Z,2.77
2018-09-27T02:30:46.475Z,4.40
2018-09-27T02:33:14.806Z,3.40
2018-09-27T02:35:43.115Z,2.50
2018-09-27T02:38:11.395Z,5.85
2018-09-27T02:40:39.671Z,4.20
2018-09-27T02:43:07.943Z,5.23
2018-09-27T02:45:36.274Z,3.50
2018-09-27T02:48:04.587Z,2.37
2018-09-27T02:50:32.838Z,2.40
2018-09-27T02:53:01.123Z,3.00
2018-09-27T02:55:29.418Z,3.33
2018-09-27T02:57:58.363Z,2.92
2018-09-27T03:00:26.633Z,3.50
2018-09-27T03:02:55.035Z,2.77
2018-09-27T03:05:23.331Z,5.10
2018-09-27T03:07:51.924Z,3.40
2018-09-27T03:10:20.235Z,5.27
2018-09-27T03:12:48.526Z,3.00
2018-09-27T03:15:16.803Z,2.93
2018-09-27T03:17:45.123Z,2.50
2018-09-27T03:20:13.446Z,3.50
2018-09-27T03:22:41.735Z,3.17
2018-09-27T03:25:10.039Z,3.42
2018-09-27T03:27:38.350Z,2.43
2018-09-27T03:30:06.690Z,1.97
2018-09-27T03:32:34.994Z,2.73
2018-09-27T03:35:03.326Z,2.40
2018-09-27T03:37:31.647Z,2.43
2018-09-27T03:39:59.957Z,2.33
2018-09-27T03:42:28.279Z,2.93
2018-09-27T03:44:56.695Z,3.07
2018-09-27T03:47:24.986Z,2.47
2018-09-27T03:49:53.291Z,3.30
2018-09-27T03:52:21.587Z,2.93
2018-09-27T03:54:49.974Z,1.83
2018-09-27T03:57:18.304Z,3.70
2018-09-27T03:59:46.662Z,5.62
2018-09-27T04:02:15.010Z,6.50
2018-09-27T04:04:43.392Z,3.00
2018-09-27T04:07:11.778Z,4.40
2018-09-27T04:09:40.095Z,1.87
2018-09-27T04:12:08.593Z,2.70
2018-09-27T04:14:36.922Z,3.53
2018-09-27T04:17:05.399Z,2.60
2018-09-27T04:19:33.720Z,1.53
2018-09-27T04:22:02.024Z,3.33
2018-09-27T04:24:30.326Z,8.00
2018-09-27T04:26:58.613Z,1.40
2018-09-27T04:29:26.998Z,2.63
2018-09-27T04:31:55.275Z,2.50
2018-09-27T04:34:23.603Z,5.30
2018-09-27T04:36:53.239Z,1.70
2018-09-27T04:39:21.618Z,6.17
2018-09-27T04:41:49.982Z,3.00
2018-09-27T04:44:18.395Z,3.80
2018-09-27T04:46:46.745Z,2.77
2018-09-27T04:49:15.130Z,4.03
2018-09-27T04:51:43.507Z,4.17
2018-09-27T04:54:11.882Z,2.83
2018-09-27T04:56:40.234Z,3.90
2018-09-27T04:59:08.540Z,9.30
2018-09-27T05:01:36.818Z,4.10
2018-09-27T05:04:05.108Z,2.93
2018-09-27T05:06:33.464Z,4.03
2018-09-27T05:09:01.775Z,3.63
2018-09-27T05:11:30.079Z,2.33
2018-09-27T05:13:58.411Z,2.70
2018-09-27T05:16:26.728Z,3.12
2018-09-27T05:18:55.078Z,3.80
2018-09-27T05:21:23.395Z,3.00
2018-09-27T05:23:51.698Z,1.60
2018-09-27T05:26:20.095Z,4.20
2018-09-27T05:28:48.400Z,2.40
2018-09-27T05:31:16.754Z,7.10
2018-09-27T05:33:45.063Z,2.90
2018-09-27T05:36:13.419Z,2.67
2018-09-27T05:38:41.741Z,2.90
2018-09-27T05:41:10.770Z,3.73
2018-09-27T05:43:39.199Z,1.93
2018-09-27T05:46:07.759Z,3.83
2018-09-27T05:48:36.145Z,2.40
2018-09-27T05:51:04.570Z,3.93
2018-09-27T05:53:33.083Z,1.60
2018-09-27T05:56:01.462Z,3.43
2018-09-27T05:58:29.895Z,4.60
2018-09-27T06:00:58.202Z,3.10
2018-09-27T06:03:26.653Z,3.42
2018-09-27T06:05:54.991Z,2.87
2018-09-27T06:08:23.355Z,1.70
2018-09-27T06:10:51.762Z,3.43
2018-09-27T06:13:20.103Z,3.77
2018-09-27T06:15:48.499Z,3.00
2018-09-27T06:18:16.886Z,3.97
2018-09-27T06:20:45.231Z,5.03
2018-09-27T06:23:13.882Z,4.23
2018-09-27T06:25:42.177Z,3.60
2018-09-27T06:28:10.471Z,6.30
2018-09-27T06:30:39.525Z,6.73
2018-09-27T06:33:08.059Z,2.23
2018-09-27T06:35:36.854Z,3.93
2018-09-27T06:38:05.194Z,4.63
2018-09-27T06:40:33.486Z,3.23
2018-09-27T06:43:01.839Z,5.90
2018-09-27T06:45:30.186Z,2.17
2018-09-27T06:47:58.530Z,2.43
2018-09-27T06:50:26.920Z,3.47
2018-09-27T06:52:55.314Z,3.70
2018-09-27T06:55:24.044Z,3.07
2018-09-27T06:57:52.046Z,2.93
2018-09-27T07:00:20.357Z,2.90
2018-09-27T07:02:48.678Z,2.97
2018-09-27T07:05:17.058Z,4.67
2018-09-27T07:07:46.242Z,2.97
2018-09-27T07:10:14.778Z,5.67
2018-09-27T07:12:43.126Z,3.57
2018-09-27T07:15:11.448Z,3.27
2018-09-27T07:17:39.782Z,5.10
2018-09-27T07:20:08.169Z,3.27
2018-09-27T07:22:36.552Z,2.70
2018-09-27T07:25:05.084Z,6.10
2018-09-27T07:27:33.383Z,4.57
2018-09-27T07:30:01.662Z,6.50
2018-09-27T07:32:30.033Z,2.13
2018-09-27T07:34:58.327Z,3.37
2018-09-27T07:37:26.707Z,2.67
2018-09-27T07:39:55.094Z,3.90
2018-09-27T07:42:23.421Z,3.00
2018-09-27T07:44:51.690Z,2.40
2018-09-27T07:47:20.026Z,10.47
2018-09-27T07:49:48.318Z,3.17
2018-09-27T07:52:16.692Z,4.50
2018-09-27T07:54:45.267Z,5.67
2018-09-27T07:57:13.595Z,4.43
2018-09-27T07:59:41.934Z,3.10
2018-09-27T08:02:10.561Z,5.03
2018-09-27T08:04:38.942Z,4.50
2018-09-27T08:07:07.235Z,5.03
2018-09-27T08:09:35.691Z,6.70
2018-09-27T08:12:04.079Z,5.43
2018-09-27T08:14:32.383Z,2.63
2018-09-27T08:17:00.726Z,6.53
2018-09-27T08:19:29.013Z,5.13
2018-09-27T08:21:57.318Z,5.93
2018-09-27T08:24:25.684Z,8.00
2018-09-27T08:26:54.114Z,6.27
2018-09-27T08:29:23.050Z,2.73
2018-09-27T08:31:51.359Z,5.17
2018-09-27T08:34:19.738Z,4.10
2018-09-27T08:36:48.126Z,4.67
2018-09-27T08:39:16.492Z,5.87
2018-09-27T08:41:44.887Z,5.03
2018-09-27T08:44:13.253Z,2.27
2018-09-27T08:46:42.294Z,5.67
2018-09-27T08:49:10.595Z,4.63
2018-09-27T08:51:39.063Z,6.53
2018-09-27T08:54:07.382Z,5.37
2018-09-27T08:56:35.837Z,4.30
2018-09-27T08:59:04.146Z,4.53
2018-09-27T09:01:32.515Z,5.07
2018-09-27T09:04:00.843Z,3.53
2018-09-27T09:06:29.132Z,4.77
2018-09-27T09:08:57.443Z,2.73
2018-09-27T09:11:26.319Z,5.17
2018-09-27T09:13:54.697Z,5.37
2018-09-27T09:16:23.047Z,3.80
2018-09-27T09:18:51.370Z,3.60
2018-09-27T09:21:19.735Z,4.97
2018-09-27T09:23:48.111Z,3.83
2018-09-27T09:26:16.507Z,6.73
2018-09-27T09:28:44.787Z,5.97
2018-09-27T09:31:13.123Z,3.70
2018-09-27T09:33:41.558Z,11.75
2018-09-27T09:36:09.831Z,2.45
2018-09-27T09:38:38.210Z,4.80
2018-09-27T09:41:06.774Z,3.10
2018-09-27T09:43:35.178Z,4.50
2018-09-27T09:46:03.566Z,5.27
2018-09-27T09:48:31.887Z,4.00
2018-09-27T09:51:00.178Z,5.60
2018-09-27T09:53:28.971Z,3.70
2018-09-27T09:55:57.267Z,5.00
2018-09-27T09:58:25.634Z,3.30
2018-09-27T10:00:53.941Z,3.57
2018-09-27T10:03:22.277Z,6.77
2018-09-27T10:05:50.582Z,3.50
2018-09-27T10:08:18.934Z,4.83
2018-09-27T10:10:47.262Z,4.90
2018-09-27T10:13:15.522Z,4.53
2018-09-27T10:15:43.809Z,4.87
2018-09-27T10:18:12.081Z,5.40
2018-09-27T10:20:40.343Z,3.97
2018-09-27T10:23:09.190Z,13.53
2018-09-27T10:25:37.576Z,11.33
2018-09-27T10:28:05.892Z,30.20
2018-09-27T10:30:34.150Z,8.20
2018-09-27T10:33:02.504Z,7.67
2018-09-27T10:35:30.754Z,6.77
2018-09-27T10:37:59.037Z,7.20
2018-09-27T10:40:27.310Z,5.60
2018-09-27T10:42:55.606Z,7.13
2018-09-27T10:45:23.894Z,5.03
2018-09-27T10:47:52.218Z,5.20
2018-09-27T10:50:20.494Z,5.12
2018-09-27T10:52:48.770Z,5.43
2018-09-27T10:55:17.057Z,7.13
2018-09-27T10:57:45.327Z,4.30
2018-09-27T11:00:17.898Z,6.53
2018-09-27T11:02:46.621Z,3.97
2018-09-27T11:05:15.026Z,3.50
2018-09-27T11:07:43.363Z,4.07
2018-09-27T11:10:11.617Z,9.23
2018-09-27T11:12:40.178Z,2.73
2018-09-27T11:15:08.471Z,3.73
2018-09-27T11:17:40.446Z,3.70
2018-09-27T11:20:08.762Z,3.77
2018-09-27T11:22:37.069Z,6.33
2018-09-27T11:25:05.691Z,3.20
2018-09-27T11:27:34.035Z,5.70
2018-09-27T11:30:07.394Z,3.37
2018-09-27T11:32:41.678Z,3.50
2018-09-27T11:35:10.054Z,5.40
2018-09-27T11:37:38.386Z,3.40
2018-09-27T11:40:08.103Z,6.60
2018-09-27T11:42:36.827Z,4.20
2018-09-27T11:45:05.162Z,2.73
2018-09-27T11:47:33.673Z,4.10
2018-09-27T11:50:02.040Z,3.90
2018-09-27T11:52:30.274Z,2.73
2018-09-27T11:54:58.603Z,4.77
2018-09-27T11:57:26.941Z,3.73
2018-09-27T11:59:55.534Z,2.60
2018-09-27T12:02:23.935Z,2.10
2018-09-27T12:04:52.314Z,5.27
2018-09-27T12:07:20.728Z,3.20
2018-09-27T12:09:48.949Z,4.03
2018-09-27T12:12:18.677Z,2.35
2018-09-27T12:14:46.982Z,4.00
2018-09-27T12:17:15.314Z,3.70
2018-09-27T12:19:43.654Z,2.90
2018-09-27T12:22:11.923Z,3.80
2018-09-27T12:24:40.210Z,3.90
2018-09-27T12:27:08.534Z,2.93
2018-09-27T12:29:36.796Z,3.57
2018-09-27T12:32:05.103Z,2.90
2018-09-27T12:34:33.435Z,5.33
2018-09-27T12:37:01.703Z,4.07
2018-09-27T12:39:30.002Z,2.47
2018-09-27T12:41:58.380Z,2.13
2018-09-27T12:44:26.616Z,2.03
2018-09-27T12:46:55.093Z,1.60
2018-09-27T12:49:23.383Z,3.52
2018-09-27T12:51:51.751Z,3.80
2018-09-27T12:54:20.060Z,1.87
2018-09-27T12:56:48.471Z,1.90
2018-09-27T12:59:16.822Z,1.90
2018-09-27T13:01:45.220Z,2.87
2018-09-27T13:04:13.456Z,1.40
2018-09-27T13:06:41.706Z,1.53
2018-09-27T13:09:10.677Z,3.13
2018-09-27T13:11:40.767Z,2.40
2018-09-27T13:14:07.218Z,1.80
2018-09-27T13:16:35.545Z,4.47
2018-09-27T13:19:03.984Z,8.53
2018-09-27T13:21:32.372Z,1.97
2018-09-27T13:24:00.743Z,1.47
2018-09-27T13:26:29.068Z,1.37
2018-09-27T13:28:57.377Z,1.97
2018-09-27T13:31:25.685Z,4.30
2018-09-27T13:33:53.999Z,2.37
2018-09-27T13:36:22.359Z,1.60
2018-09-27T13:38:50.811Z,3.43
2018-09-27T13:41:19.087Z,3.13
2018-09-27T13:43:47.409Z,3.37
2018-09-27T13:46:15.700Z,5.30
2018-09-27T13:48:44.116Z,6.77
2018-09-27T13:51:12.390Z,3.57
2018-09-27T13:53:40.734Z,4.20
2018-09-27T13:56:09.074Z,1.93
2018-09-27T13:58:37.381Z,4.23
2018-09-27T14:01:05.816Z,2.27
2018-09-27T14:03:34.106Z,6.27
2018-09-27T14:06:02.499Z,4.63
2018-09-27T14:08:30.790Z,1.37
2018-09-27T14:10:59.087Z,1.57
2018-09-27T14:13:27.419Z,2.60
2018-09-27T14:15:55.810Z,2.00
2018-09-27T14:18:24.150Z,1.33
2018-09-27T14:20:52.422Z,1.33
2018-09-27T14:23:20.755Z,2.22
2018-09-27T14:25:49.293Z,1.43
2018-09-27T14:28:23.982Z,5.27
2018-09-27T14:30:52.455Z,2.07
2018-09-27T14:33:20.798Z,3.10
2018-09-27T14:35:50.035Z,1.80
2018-09-27T14:38:18.350Z,5.37
2018-09-27T14:40:46.717Z,1.60
2018-09-27T14:43:15.070Z,2.70
2018-09-27T14:45:43.475Z,1.90
2018-09-27T14:48:11.788Z,4.27
2018-09-27T14:50:41.130Z,1.03
2018-09-27T14:53:09.498Z,1.23
2018-09-27T14:55:38.034Z,2.03
2018-09-27T14:58:06.338Z,1.30
2018-09-27T15:00:34.972Z,1.67
2018-09-27T15:03:03.287Z,1.57
2018-09-27T15:05:32.114Z,2.53
2018-09-27T15:08:00.626Z,1.40
2018-09-27T15:10:29.022Z,2.30
2018-09-27T15:13:04.126Z,2.10
2018-09-27T15:15:32.443Z,3.10
2018-09-27T15:18:00.737Z,3.93
2018-09-27T15:20:28.988Z,2.20
2018-09-27T15:22:57.398Z,2.50
2018-09-27T15:25:25.754Z,1.97
2018-09-27T15:27:54.755Z,2.37
2018-09-27T15:30:23.137Z,2.80
2018-09-27T15:32:51.394Z,7.47
2018-09-27T15:35:19.931Z,2.80
2018-09-27T15:37:48.386Z,4.00
2018-09-27T15:40:16.855Z,1.03
2018-09-27T15:42:46.106Z,1.57
2018-09-27T15:45:14.409Z,4.07
2018-09-27T15:47:42.858Z,2.70
2018-09-27T15:50:11.395Z,2.40
2018-09-27T15:52:39.945Z,3.63
2018-09-27T15:55:08.246Z,5.60
2018-09-27T15:57:36.642Z,1.65
2018-09-27T16:00:05.247Z,7.73
2018-09-27T16:02:33.538Z,3.22
2018-09-27T16:05:01.902Z,4.70
2018-09-27T16:07:30.324Z,3.73
2018-09-27T16:09:58.854Z,4.67
2018-09-27T16:12:27.305Z,3.47
2018-09-27T16:14:55.674Z,1.90
2018-09-27T16:17:24.080Z,5.63
2018-09-27T16:19:52.444Z,2.30
2018-09-27T16:22:20.869Z,8.50
2018-09-27T16:24:49.268Z,6.20
2018-09-27T16:27:17.665Z,5.60
2018-09-27T16:29:46.129Z,2.25
2018-09-27T16:32:14.350Z,5.87
2018-09-27T16:34:42.730Z,4.67
2018-09-27T16:37:11.102Z,4.90
2018-09-27T16:39:39.498Z,6.40
2018-09-27T16:42:07.834Z,4.30
2018-09-27T16:44:36.353Z,1.57
2018-09-27T16:47:05.038Z,2.13
2018-09-27T16:49:33.504Z,3.00
2018-09-27T16:52:03.018Z,10.70
2018-09-27T16:54:31.522Z,2.50
2018-09-27T16:56:59.902Z,3.40
2018-09-27T16:59:28.256Z,2.43
2018-09-27T17:01:56.760Z,4.83
2018-09-27T17:04:25.038Z,2.07
2018-09-27T17:06:53.370Z,3.10
2018-09-27T17:09:21.738Z,2.20
2018-09-27T17:11:50.151Z,5.10
2018-09-27T17:14:18.511Z,5.07
2018-09-27T17:16:47.286Z,2.70
2018-09-27T17:19:15.702Z,2.00
2018-09-27T17:21:44.028Z,1.93
2018-09-27T17:24:12.375Z,2.70
2018-09-27T17:26:40.845Z,3.47
2018-09-27T17:29:09.231Z,1.30
2018-09-27T17:31:37.600Z,22.47
2018-09-27T17:34:06.283Z,4.50
2018-09-27T17:36:34.577Z,4.50
2018-09-27T17:39:02.918Z,3.97
2018-09-27T17:41:31.490Z,4.60
2018-09-27T17:43:59.806Z,6.53
2018-09-27T17:46:28.239Z,3.53
2018-09-27T17:48:56.522Z,2.97
2018-09-27T17:51:24.977Z,12.05
2018-09-27T17:53:53.282Z,13.20
2018-09-27T17:56:21.634Z,10.82
2018-09-27T17:58:50.018Z,16.73
2018-09-27T18:01:18.358Z,5.93
2018-09-27T18:03:46.883Z,15.17
2018-09-27T18:06:15.211Z,17.10
2018-09-27T18:08:43.560Z,11.20
2018-09-27T18:11:11.906Z,13.63
2018-09-27T18:13:40.470Z,17.93
2018-09-27T18:16:09.527Z,12.07
2018-09-27T18:18:38.393Z,12.40
2018-09-27T18:21:06.802Z,11.00
2018-09-27T18:23:35.107Z,14.40
2018-09-27T18:26:03.490Z,9.27
2018-09-27T18:28:31.849Z,11.60
2018-09-27T18:31:00.280Z,11.47
2018-09-27T18:33:28.574Z,12.40
2018-09-27T18:35:56.871Z,13.03
2018-09-27T18:38:25.155Z,14.97
2018-09-27T18:40:53.542Z,11.80
2018-09-27T18:43:21.982Z,21.23
2018-09-27T18:45:50.270Z,198.47
2018-09-27T18:48:18.670Z,164.17
2018-09-27T18:50:46.946Z,171.20
2018-09-27T18:53:15.327Z,123.93
2018-09-27T18:55:43.670Z,126.10
2018-09-27T18:58:12.143Z,88.70
2018-09-27T19:00:40.392Z,80.77
2018-09-27T19:03:08.687Z,75.17
2018-09-27T19:05:37.106Z,57.30
2018-09-27T19:08:05.439Z,66.33
2018-09-27T19:10:33.943Z,62.10
2018-09-27T19:13:02.267Z,57.67
2018-09-27T19:15:30.687Z,52.80
2018-09-27T19:17:59.003Z,46.23
2018-09-27T19:20:27.426Z,51.23
2018-09-27T19:22:55.822Z,48.37
2018-09-27T19:25:24.316Z,43.73
2018-09-27T19:27:52.658Z,46.73
2018-09-27T19:30:20.957Z,43.50
2018-09-27T19:32:49.369Z,40.00
2018-09-27T19:35:17.818Z,38.47
2018-09-27T19:37:46.118Z,39.93
2018-09-27T19:40:14.515Z,35.80
2018-09-27T19:42:42.895Z,40.27
2018-09-27T19:45:11.377Z,36.57
2018-09-27T19:47:39.715Z,29.30
2018-09-27T19:50:08.043Z,30.63
2018-09-27T19:52:36.835Z,31.10
2018-09-27T19:55:05.402Z,33.67
2018-09-27T19:57:33.730Z,29.83
2018-09-27T20:00:02.135Z,29.92
2018-09-27T20:02:30.567Z,26.97
2018-09-27T20:04:58.874Z,26.53
2018-09-27T20:07:27.318Z,27.07
2018-09-27T20:09:55.625Z,23.75
2018-09-27T20:12:24.382Z,25.27
2018-09-27T20:14:52.803Z,27.93
2018-09-27T20:17:21.194Z,23.13
2018-09-27T20:19:49.636Z,21.50
2018-09-27T20:22:17.950Z,18.43
2018-09-27T20:24:47.203Z,19.67
2018-09-27T20:27:15.540Z,17.10
2018-09-27T20:29:43.985Z,17.23
2018-09-27T20:32:12.290Z,15.67
2018-09-27T20:34:40.734Z,20.90
2018-09-27T20:37:09.042Z,13.40
2018-09-27T20:39:37.418Z,16.83
2018-09-27T20:42:05.803Z,15.40
2018-09-27T20:44:34.107Z,14.47
2018-09-27T20:47:02.469Z,15.27
2018-09-27T20:49:30.916Z,18.80
2018-09-27T20:51:59.226Z,16.00
2018-09-27T20:54:27.754Z,12.60
2018-09-27T20:56:56.081Z,14.43
2018-09-27T20:59:24.547Z,13.13
2018-09-27T21:01:52.870Z,14.33
2018-09-27T21:04:21.279Z,11.67
2018-09-27T21:06:49.785Z,14.23
2018-09-27T21:09:18.247Z,8.13
2018-09-27T21:11:47.237Z,8.63
2018-09-27T21:14:15.671Z,9.07
2018-09-27T21:16:44.051Z,11.60
2018-09-27T21:19:13.336Z,8.40
2018-09-27T21:21:41.662Z,10.77
2018-09-27T21:24:10.134Z,9.37
2018-09-27T21:26:38.769Z,6.90
2018-09-27T21:29:07.066Z,9.17
2018-09-27T21:31:35.338Z,7.33
2018-09-27T21:34:03.765Z,7.40
2018-09-27T21:36:32.047Z,8.27
2018-09-27T21:39:00.430Z,7.93
2018-09-27T21:41:28.811Z,9.88
2018-09-27T21:43:57.118Z,6.62
2018-09-27T21:46:25.392Z,6.97
2018-09-27T21:48:53.772Z,10.40
2018-09-27T21:51:22.668Z,5.42
2018-09-27T21:53:51.019Z,5.87
2018-09-27T21:56:19.278Z,7.13
2018-09-27T21:58:47.561Z,7.23
2018-09-27T22:01:15.983Z,5.60
2018-09-27T22:03:43.557Z,5.10
2018-09-27T22:06:11.879Z,9.03
2018-09-27T22:08:40.207Z,5.10
2018-09-27T22:11:08.522Z,6.50
2018-09-27T22:13:36.787Z,6.60
2018-09-27T22:16:05.085Z,6.17
2018-09-27T22:18:33.448Z,5.30
2018-09-27T22:21:01.790Z,4.10
2018-09-27T22:23:30.270Z,3.80
2018-09-27T22:25:58.526Z,6.10
2018-09-27T22:28:26.955Z,7.20
2018-09-27T22:30:55.236Z,7.43
2018-09-27T22:33:23.547Z,6.73
2018-09-27T22:35:51.971Z,5.57
2018-09-27T22:38:20.287Z,4.97
2018-09-27T22:40:48.694Z,3.93
2018-09-27T22:43:17.014Z,4.03
2018-09-27T22:45:45.391Z,4.53
2018-09-27T22:48:13.690Z,5.58
2018-09-27T22:50:41.979Z,4.37
2018-09-27T22:53:10.275Z,5.07
2018-09-27T22:55:38.599Z,3.33
2018-09-27T22:58:06.886Z,4.93
2018-09-27T23:00:35.180Z,4.13
2018-09-27T23:03:03.510Z,6.50
2018-09-27T23:05:31.868Z,4.72
2018-09-27T23:08:00.166Z,5.93
2018-09-27T23:10:28.482Z,3.90
2018-09-27T23:12:56.838Z,2.90
2018-09-27T23:15:25.134Z,4.07
2018-09-27T23:17:53.402Z,3.97
2018-09-27T23:20:21.686Z,5.03
2018-09-27T23:22:49.942Z,3.77
2018-09-27T23:25:18.226Z,4.27
2018-09-27T23:27:46.707Z,6.27
2018-09-27T23:30:14.974Z,3.20
2018-09-27T23:32:43.246Z,3.17
2018-09-27T23:35:11.583Z,2.87
2018-09-27T23:37:39.847Z,5.17
2018-09-27T23:40:08.202Z,3.75
2018-09-27T23:42:36.455Z,4.65
2018-09-27T23:45:04.818Z,4.25
2018-09-27T23:47:33.124Z,4.27
2018-09-27T23:50:01.505Z,7.20
2018-09-27T23:52:29.802Z,4.40
2018-09-27T23:54:58.165Z,3.20
2018-09-27T23:57:26.471Z,3.27
2018-09-27T23:59:54.786Z,3.60
